createdAt,value
2023-11-10T00:00:13.586Z,6.47
2023-11-10T00:02:44.643Z,6.45
2023-11-10T00:05:13.409Z,6.60
2023-11-10T00:07:41.638Z,6.10
2023-11-10T00:10:10.425Z,6.15
2023-11-10T00:12:38.051Z,6.55
2023-11-10T00:15:10.601Z,6.50
2023-11-10T00:17:38.128Z,6.40
2023-11-10T00:20:06.036Z,6.75
2023-11-10T00:22:33.560Z,6.78
2023-11-10T00:25:02.285Z,7.88
2023-11-10T00:27:29.787Z,7.00
2023-11-10T00:29:57.566Z,7.80
2023-11-10T00:32:26.983Z,7.28
2023-11-10T00:34:54.362Z,7.47
2023-11-10T00:37:21.723Z,7.28
2023-11-10T00:39:49.163Z,7.45
2023-11-10T00:42:17.069Z,7.38
2023-11-10T00:44:44.620Z,7.43
2023-11-10T00:47:13.461Z,6.72
2023-11-10T00:49:41.181Z,7.28
2023-11-10T00:52:09.257Z,6.88
2023-11-10T00:54:37.118Z,7.13
2023-11-10T00:57:04.896Z,7.28
2023-11-10T00:59:32.348Z,6.43
2023-11-10T01:02:00.159Z,6.10
2023-11-10T01:04:27.660Z,6.40
2023-11-10T01:06:55.415Z,6.43
2023-11-10T01:09:22.914Z,6.55
2023-11-10T01:11:50.219Z,6.60
2023-11-10T01:14:17.705Z,6.63
2023-11-10T01:16:45.215Z,6.60
2023-11-10T01:19:12.581Z,6.20
2023-11-10T01:21:40.009Z,7.00
2023-11-10T01:24:07.878Z,6.70
2023-11-10T01:26:35.173Z,6.47
2023-11-10T01:29:02.617Z,6.72
2023-11-10T01:31:30.070Z,6.70
2023-11-10T01:33:57.606Z,6.32
2023-11-10T01:36:25.887Z,6.70
2023-11-10T01:38:53.268Z,6.60
2023-11-10T01:41:21.966Z,6.40
2023-11-10T01:43:49.659Z,6.07
2023-11-10T01:46:41.398Z,6.35
2023-11-10T01:49:11.403Z,6.10
2023-11-10T01:51:40.208Z,5.90
2023-11-10T01:54:10.220Z,5.57
2023-11-10T01:56:38.228Z,6.03
2023-11-10T01:59:09.911Z,6.47
2023-11-10T02:01:38.199Z,6.30
2023-11-10T02:04:07.846Z,6.30
2023-11-10T02:06:35.850Z,6.13
2023-11-10T02:09:03.470Z,5.97
2023-11-10T02:11:34.389Z,6.30
2023-11-10T02:14:08.444Z,6.45
2023-11-10T02:16:37.430Z,6.70
2023-11-10T02:19:06.013Z,5.97
2023-11-10T02:21:35.300Z,5.88
2023-11-10T02:24:09.359Z,5.97
2023-11-10T02:26:37.406Z,6.18
2023-11-10T02:29:04.902Z,6.35
2023-11-10T02:31:33.411Z,6.07
2023-11-10T02:34:00.883Z,5.85
2023-11-10T02:36:31.381Z,6.05
2023-11-10T02:38:58.911Z,6.05
2023-11-10T02:41:26.349Z,6.68
2023-11-10T02:43:53.807Z,6.18
2023-11-10T02:46:21.366Z,7.00
2023-11-10T02:48:49.543Z,6.60
2023-11-10T02:51:17.053Z,6.75
2023-11-10T02:53:44.614Z,6.57
2023-11-10T02:56:12.106Z,6.32
2023-11-10T02:58:39.575Z,6.68
2023-11-10T03:01:07.076Z,6.70
2023-11-10T03:03:34.546Z,7.30
2023-11-10T03:06:01.911Z,8.38
2023-11-10T03:08:29.336Z,7.93
2023-11-10T03:10:58.657Z,6.88
2023-11-10T03:13:26.306Z,6.80
2023-11-10T03:15:53.811Z,7.40
2023-11-10T03:18:21.781Z,7.50
2023-11-10T03:20:49.422Z,7.38
2023-11-10T03:23:17.130Z,8.00
2023-11-10T03:25:44.739Z,7.50
2023-11-10T03:28:12.223Z,7.78
2023-11-10T03:30:39.806Z,7.80
2023-11-10T03:33:08.042Z,7.13
2023-11-10T03:35:35.473Z,7.63
2023-11-10T03:38:03.106Z,7.82
2023-11-10T03:40:30.697Z,7.95
2023-11-10T03:42:58.317Z,7.75
2023-11-10T03:45:25.815Z,8.98
2023-11-10T03:47:53.303Z,8.70
2023-11-10T03:50:20.989Z,9.65
2023-11-10T03:52:48.413Z,9.95
2023-11-10T03:55:15.891Z,9.73
2023-11-10T03:57:44.518Z,10.10
2023-11-10T04:00:14.647Z,9.98
2023-11-10T04:02:42.112Z,10.18
2023-11-10T04:05:09.815Z,10.55
2023-11-10T04:07:37.313Z,11.18
2023-11-10T04:10:05.859Z,11.50
2023-11-10T04:12:34.031Z,10.27
2023-11-10T04:15:01.658Z,11.45
2023-11-10T04:17:28.959Z,11.25
2023-11-10T04:19:56.332Z,11.70
2023-11-10T04:22:23.721Z,10.82
2023-11-10T04:24:51.279Z,10.55
2023-11-10T04:27:19.602Z,10.77
2023-11-10T04:29:47.420Z,10.48
2023-11-10T04:32:14.776Z,11.77
2023-11-10T04:34:42.132Z,10.57
2023-11-10T04:37:09.611Z,11.32
2023-11-10T04:39:37.793Z,11.07
2023-11-10T04:42:05.700Z,10.60
2023-11-10T04:44:33.095Z,10.45
2023-11-10T04:47:00.503Z,10.05
2023-11-10T04:49:28.087Z,10.07
2023-11-10T04:51:55.613Z,10.80
2023-11-10T04:54:23.351Z,10.73
2023-11-10T04:56:51.131Z,10.68
2023-11-10T04:59:19.310Z,10.70
2023-11-10T05:01:48.052Z,9.88
2023-11-10T05:04:15.907Z,8.85
2023-11-10T05:06:43.540Z,9.73
2023-11-10T05:09:11.117Z,8.48
2023-11-10T05:11:38.711Z,8.02
2023-11-10T05:14:06.199Z,8.00
2023-11-10T05:16:33.725Z,8.32
2023-11-10T05:19:01.396Z,7.78
2023-11-10T05:21:29.481Z,7.78
2023-11-10T05:23:57.015Z,8.07
2023-11-10T05:26:25.328Z,8.82
2023-11-10T05:28:52.737Z,8.38
2023-11-10T05:31:21.268Z,8.90
2023-11-10T05:33:48.691Z,8.50
2023-11-10T05:36:16.202Z,8.82
2023-11-10T05:38:43.774Z,7.95
2023-11-10T05:41:11.186Z,8.45
2023-11-10T05:43:38.716Z,9.43
2023-11-10T05:46:06.948Z,9.55
2023-11-10T05:48:34.438Z,9.13
2023-11-10T05:51:05.007Z,9.30
2023-11-10T05:53:35.440Z,9.32
2023-11-10T05:56:07.493Z,9.13
2023-11-10T05:58:35.117Z,8.30
2023-11-10T06:01:02.793Z,10.18
2023-11-10T06:03:30.282Z,9.45
2023-11-10T06:05:57.899Z,9.25
2023-11-10T06:08:27.801Z,9.63
2023-11-10T06:10:55.589Z,9.30
2023-11-10T06:13:24.398Z,9.55
2023-11-10T06:15:53.198Z,10.68
2023-11-10T06:18:20.706Z,9.80
2023-11-10T06:20:48.185Z,10.57
2023-11-10T06:23:16.041Z,9.07
2023-11-10T06:25:43.511Z,9.75
2023-11-10T06:28:11.139Z,9.43
2023-11-10T06:30:38.735Z,9.95
2023-11-10T06:33:06.274Z,10.05
2023-11-10T06:35:33.715Z,8.65
2023-11-10T06:38:02.607Z,9.55
2023-11-10T06:40:30.794Z,10.30
2023-11-10T06:42:59.965Z,9.30
2023-11-10T06:45:28.182Z,9.02
2023-11-10T06:47:55.775Z,8.82
2023-11-10T06:50:23.644Z,10.05
2023-11-10T06:52:51.039Z,9.98
2023-11-10T06:55:18.874Z,9.50
2023-11-10T06:57:47.873Z,9.13
2023-11-10T07:00:16.018Z,9.38
2023-11-10T07:02:43.913Z,9.20
2023-11-10T07:05:11.591Z,9.65
2023-11-10T07:07:39.292Z,9.45
2023-11-10T07:10:07.451Z,10.27
2023-11-10T07:12:35.089Z,9.75
2023-11-10T07:15:02.672Z,9.00
2023-11-10T07:17:30.054Z,9.95
2023-11-10T07:19:57.666Z,9.40
2023-11-10T07:22:25.334Z,9.30
2023-11-10T07:24:53.162Z,9.55
2023-11-10T07:27:21.004Z,9.48
2023-11-10T07:29:52.786Z,9.98
2023-11-10T07:32:20.293Z,9.48
2023-11-10T07:34:48.300Z,9.45
2023-11-10T07:37:16.134Z,9.88
2023-11-10T07:39:43.796Z,8.85
2023-11-10T07:42:11.386Z,9.40
2023-11-10T07:44:38.831Z,9.20
2023-11-10T07:47:06.544Z,9.40
2023-11-10T07:49:34.191Z,8.60
2023-11-10T07:52:01.675Z,9.15
2023-11-10T07:54:30.805Z,9.07
2023-11-10T07:56:58.799Z,9.45
2023-11-10T07:59:26.406Z,8.85
2023-11-10T08:01:53.814Z,8.02
2023-11-10T08:04:21.646Z,7.60
2023-11-10T08:06:49.273Z,7.57
2023-11-10T08:09:17.111Z,7.03
2023-11-10T08:11:52.539Z,7.45
2023-11-10T08:14:22.960Z,7.28
2023-11-10T08:16:50.736Z,6.57
2023-11-10T08:19:20.018Z,6.32
2023-11-10T08:21:47.467Z,5.75
2023-11-10T08:24:15.493Z,6.45
2023-11-10T08:26:43.598Z,6.35
2023-11-10T08:29:11.217Z,6.38
2023-11-10T08:31:38.720Z,5.95
2023-11-10T08:34:06.212Z,5.88
2023-11-10T08:36:36.495Z,5.78
2023-11-10T08:39:04.131Z,6.05
2023-11-10T08:41:31.560Z,5.57
2023-11-10T08:43:59.217Z,5.70
2023-11-10T08:46:27.443Z,5.50
2023-11-10T08:48:55.214Z,6.07
2023-11-10T08:51:22.872Z,5.43
2023-11-10T08:53:50.268Z,4.95
2023-11-10T08:56:17.760Z,5.32
2023-11-10T08:58:45.844Z,5.30
2023-11-10T09:01:13.227Z,5.88
2023-11-10T09:03:40.729Z,5.63
2023-11-10T09:06:08.272Z,5.18
2023-11-10T09:08:36.202Z,5.55
2023-11-10T09:11:03.592Z,4.93
2023-11-10T09:13:31.323Z,5.93
2023-11-10T09:16:02.343Z,5.40
2023-11-10T09:18:30.492Z,5.93
2023-11-10T09:20:58.399Z,5.10
2023-11-10T09:23:31.237Z,5.20
2023-11-10T09:25:58.842Z,5.38
2023-11-10T09:28:26.159Z,5.63
2023-11-10T09:30:55.434Z,5.00
2023-11-10T09:33:25.653Z,4.93
2023-11-10T09:35:53.240Z,5.22
2023-11-10T09:38:20.802Z,5.20
2023-11-10T09:40:48.530Z,5.35
2023-11-10T09:43:17.095Z,5.10
2023-11-10T09:45:50.510Z,4.93
2023-11-10T09:48:19.674Z,5.38
2023-11-10T09:50:49.710Z,5.45
2023-11-10T09:53:19.315Z,5.70
2023-11-10T09:55:47.615Z,5.32
2023-11-10T09:58:17.233Z,5.47
2023-11-10T10:00:45.395Z,5.30
2023-11-10T10:03:14.553Z,5.07
2023-11-10T10:05:42.230Z,5.35
2023-11-10T10:08:09.758Z,5.35
2023-11-10T10:10:40.958Z,5.25
2023-11-10T10:13:09.502Z,5.47
2023-11-10T10:15:39.611Z,5.65
2023-11-10T10:18:10.345Z,5.63
2023-11-10T10:20:40.974Z,5.28
2023-11-10T10:23:11.551Z,5.05
2023-11-10T10:25:41.307Z,5.43
2023-11-10T10:28:09.241Z,5.55
2023-11-10T10:30:38.197Z,5.25
2023-11-10T10:33:06.968Z,5.70
2023-11-10T10:35:34.828Z,6.20
2023-11-10T10:38:06.123Z,5.47
2023-11-10T10:40:38.039Z,5.82
2023-11-10T10:43:08.911Z,5.72
2023-11-10T10:45:38.804Z,5.90
2023-11-10T10:48:07.070Z,6.00
2023-11-10T10:50:35.279Z,6.78
2023-11-10T10:53:04.559Z,5.47
2023-11-10T10:55:33.621Z,5.85
2023-11-10T10:58:01.589Z,6.82
2023-11-10T11:00:28.997Z,6.60
2023-11-10T11:03:06.217Z,6.95
2023-11-10T11:06:00.830Z,6.70
2023-11-10T11:09:08.131Z,6.90
2023-11-10T11:12:19.802Z,7.07
2023-11-10T11:15:05.284Z,6.05
2023-11-10T11:18:00.042Z,6.30
2023-11-10T11:20:27.832Z,6.13
2023-11-10T11:22:56.341Z,6.32
2023-11-10T11:25:23.769Z,6.57
2023-11-10T11:28:02.164Z,6.30
2023-11-10T11:30:42.016Z,7.30
2023-11-10T11:33:13.125Z,6.85
2023-11-10T11:35:51.395Z,6.82
2023-11-10T11:38:28.507Z,7.30
2023-11-10T11:40:59.765Z,7.28
2023-11-10T11:43:27.306Z,7.72
2023-11-10T11:46:03.440Z,7.25
2023-11-10T11:48:35.537Z,7.10
2023-11-10T11:51:05.824Z,7.65
2023-11-10T11:53:34.657Z,7.60
2023-11-10T11:56:03.652Z,7.22
2023-11-10T11:58:31.864Z,7.40
2023-11-10T12:00:59.415Z,6.82
2023-11-10T12:03:29.355Z,7.32
2023-11-10T12:05:59.906Z,7.55
2023-11-10T12:10:55.246Z,6.90
2023-11-10T12:13:23.716Z,6.53
2023-11-10T12:15:52.225Z,6.65
2023-11-10T12:18:20.133Z,6.50
2023-11-10T12:20:47.681Z,6.78
2023-11-10T12:23:18.412Z,6.97
2023-11-10T12:25:46.731Z,7.00
2023-11-10T12:28:14.847Z,6.68
2023-11-10T12:30:43.986Z,7.32
2023-11-10T12:33:11.835Z,7.28
2023-11-10T12:35:43.098Z,8.43
2023-11-10T12:38:10.529Z,8.43
2023-11-10T12:40:41.192Z,8.05
2023-11-10T12:43:12.006Z,8.90
2023-11-10T12:45:39.670Z,8.45
2023-11-10T12:48:14.558Z,8.18
2023-11-10T12:50:46.296Z,9.02
2023-11-10T12:53:13.739Z,9.82
2023-11-10T12:55:41.455Z,9.50
2023-11-10T12:58:10.186Z,9.13
2023-11-10T13:00:39.699Z,8.77
2023-11-10T13:03:07.534Z,9.50
2023-11-10T13:05:36.324Z,8.90
2023-11-10T13:08:04.863Z,9.20
2023-11-10T13:10:35.782Z,8.48
2023-11-10T13:13:03.533Z,9.13
2023-11-10T13:15:31.343Z,31.55
2023-11-10T13:18:03.194Z,27.27
2023-11-10T13:20:36.167Z,10.30
2023-11-10T13:23:04.184Z,14.13
2023-11-10T13:25:31.590Z,8.85
2023-11-10T13:27:59.052Z,8.98
2023-11-10T13:30:28.446Z,8.85
2023-11-10T13:32:56.976Z,8.55
2023-11-10T13:35:24.987Z,8.95
2023-11-10T13:37:52.758Z,10.07
2023-11-10T13:40:21.085Z,9.00
2023-11-10T13:42:48.554Z,8.60
2023-11-10T13:45:16.122Z,10.32
2023-11-10T13:47:44.304Z,8.70
2023-11-10T13:50:14.174Z,9.18
2023-11-10T13:52:42.338Z,9.30
2023-11-10T13:55:12.120Z,10.05
2023-11-10T13:57:40.070Z,9.27
2023-11-10T14:00:14.491Z,9.35
2023-11-10T14:02:42.749Z,9.95
2023-11-10T14:05:10.485Z,9.77
2023-11-10T14:07:38.043Z,9.65
2023-11-10T14:10:07.883Z,9.85
2023-11-10T14:12:35.615Z,9.65
2023-11-10T14:15:03.232Z,10.15
2023-11-10T14:17:32.176Z,9.00
2023-11-10T14:19:59.739Z,10.10
2023-11-10T14:22:29.321Z,9.82
2023-11-10T14:24:57.836Z,9.93
2023-11-10T14:27:27.126Z,9.63
2023-11-10T14:29:55.988Z,10.23
2023-11-10T14:32:27.109Z,10.02
2023-11-10T14:34:58.490Z,10.35
2023-11-10T14:37:30.474Z,11.30
2023-11-10T14:39:58.429Z,13.95
2023-11-10T14:42:26.049Z,13.35
2023-11-10T14:44:54.685Z,10.43
2023-11-10T14:47:26.544Z,11.77
2023-11-10T14:49:56.528Z,10.23
2023-11-10T14:52:27.374Z,11.10
2023-11-10T14:54:55.013Z,12.38
2023-11-10T14:57:22.752Z,15.05
2023-11-10T14:59:50.251Z,10.43
2023-11-10T15:02:18.328Z,9.65
2023-11-10T15:04:46.760Z,10.52
2023-11-10T15:07:14.891Z,9.70
2023-11-10T15:09:47.330Z,10.52
2023-11-10T15:12:15.280Z,10.25
2023-11-10T15:14:42.810Z,10.07
2023-11-10T15:17:10.640Z,10.07
2023-11-10T15:19:38.143Z,11.40
2023-11-10T15:22:05.738Z,10.85
2023-11-10T15:24:33.375Z,11.50
2023-11-10T15:27:01.045Z,12.88
2023-11-10T15:29:28.687Z,10.57
2023-11-10T15:32:05.319Z,10.27
2023-11-10T15:34:34.687Z,10.02
2023-11-10T15:37:03.659Z,9.25
2023-11-10T15:39:34.984Z,9.45
2023-11-10T15:42:03.332Z,9.55
2023-11-10T15:44:30.750Z,10.02
2023-11-10T15:46:58.398Z,10.48
2023-11-10T15:49:25.929Z,10.77
2023-11-10T15:51:57.050Z,11.65
2023-11-10T15:54:28.961Z,11.68
2023-11-10T15:57:00.420Z,11.57
2023-11-10T15:59:28.192Z,12.02
2023-11-10T16:01:56.041Z,11.52
2023-11-10T16:04:24.036Z,11.85
2023-11-10T16:06:54.014Z,10.77
2023-11-10T16:09:22.182Z,10.68
2023-11-10T16:11:50.777Z,10.70
2023-11-10T16:14:18.764Z,10.57
2023-11-10T16:16:46.294Z,10.50
2023-11-10T16:19:19.153Z,9.95
2023-11-10T16:21:46.972Z,10.05
2023-11-10T16:24:14.390Z,10.40
2023-11-10T16:26:41.790Z,10.00
2023-11-10T16:29:09.289Z,10.13
2023-11-10T16:31:36.806Z,10.68
2023-11-10T16:34:04.402Z,9.52
2023-11-10T16:36:31.722Z,14.30
2023-11-10T16:38:59.233Z,11.18
2023-11-10T16:41:28.649Z,13.25
2023-11-10T16:43:56.953Z,13.20
2023-11-10T16:46:24.626Z,13.55
2023-11-10T16:48:52.428Z,16.17
2023-11-10T16:51:20.211Z,14.82
2023-11-10T16:53:48.777Z,16.00
2023-11-10T16:56:16.467Z,15.80
2023-11-10T16:58:44.054Z,15.45
2023-11-10T17:01:11.744Z,16.67
2023-11-10T17:03:40.248Z,16.30
2023-11-10T17:06:08.132Z,16.55
2023-11-10T17:08:35.736Z,16.27
2023-11-10T17:11:04.851Z,16.60
2023-11-10T17:13:33.004Z,15.93
2023-11-10T17:16:01.097Z,15.75
2023-11-10T17:18:28.781Z,15.65
2023-11-10T17:20:56.396Z,15.52
2023-11-10T17:23:27.841Z,16.40
2023-11-10T17:25:55.332Z,15.00
2023-11-10T17:28:25.033Z,16.95
2023-11-10T17:30:53.810Z,16.10
2023-11-10T17:33:22.160Z,16.73
2023-11-10T17:35:49.680Z,18.15
2023-11-10T17:38:18.184Z,16.92
2023-11-10T17:40:46.212Z,18.58
2023-11-10T17:43:14.095Z,18.15
2023-11-10T17:45:41.824Z,19.08
2023-11-10T17:48:10.345Z,19.35
2023-11-10T17:50:37.756Z,19.38
2023-11-10T17:53:05.262Z,18.85
2023-11-10T17:55:32.800Z,19.35
2023-11-10T17:58:00.507Z,26.35
2023-11-10T18:00:27.914Z,20.65
2023-11-10T18:02:55.526Z,19.40
2023-11-10T18:05:23.119Z,19.13
2023-11-10T18:07:50.925Z,18.50
2023-11-10T18:10:23.231Z,18.67
2023-11-10T18:12:51.895Z,19.33
2023-11-10T18:15:19.645Z,17.48
2023-11-10T18:17:47.284Z,17.50
2023-11-10T18:20:14.773Z,18.55
2023-11-10T18:22:43.005Z,17.58
2023-11-10T18:25:10.595Z,17.60
2023-11-10T18:27:38.121Z,18.25
2023-11-10T18:30:06.975Z,18.83
2023-11-10T18:32:34.600Z,18.27
2023-11-10T18:35:02.370Z,18.83
2023-11-10T18:37:30.848Z,19.05
2023-11-10T18:39:59.298Z,18.30
2023-11-10T18:42:27.655Z,19.50
2023-11-10T18:44:55.241Z,18.80
2023-11-10T18:47:22.665Z,18.60
2023-11-10T18:49:50.265Z,21.90
2023-11-10T18:52:17.931Z,18.52
2023-11-10T18:54:45.439Z,19.45
2023-11-10T18:57:13.123Z,19.35
2023-11-10T18:59:40.576Z,18.33
2023-11-10T19:02:08.117Z,19.63
2023-11-10T19:04:35.619Z,19.73
2023-11-10T19:07:03.256Z,19.88
2023-11-10T19:09:30.714Z,20.73
2023-11-10T19:11:59.873Z,19.67
2023-11-10T19:14:27.522Z,20.75
2023-11-10T19:16:55.011Z,19.48
2023-11-10T19:19:22.562Z,21.27
2023-11-10T19:21:50.098Z,20.20
2023-11-10T19:24:17.520Z,21.00
2023-11-10T19:26:45.090Z,21.38
2023-11-10T19:29:14.115Z,20.83
2023-11-10T19:31:41.758Z,21.15
2023-11-10T19:34:09.254Z,20.73
2023-11-10T19:36:39.405Z,20.02
2023-11-10T19:39:08.777Z,20.15
2023-11-10T19:41:37.341Z,20.08
2023-11-10T19:44:04.869Z,20.15
2023-11-10T19:46:32.558Z,19.73
2023-11-10T19:49:01.337Z,20.42
2023-11-10T19:56:30.242Z,19.40
2023-11-10T20:01:30.147Z,18.98
2023-11-10T20:03:57.785Z,19.05
2023-11-10T20:06:25.206Z,18.48
2023-11-10T20:08:52.917Z,18.48
2023-11-10T20:11:21.072Z,19.42
2023-11-10T20:13:50.536Z,18.45
2023-11-10T20:16:19.251Z,18.50
2023-11-10T20:18:46.790Z,18.85
2023-11-10T20:21:17.787Z,20.63
2023-11-10T20:23:45.473Z,21.52
2023-11-10T20:26:12.998Z,22.58
2023-11-10T20:28:40.598Z,22.38
2023-11-10T20:31:08.248Z,26.80
2023-11-10T20:33:36.525Z,20.77
2023-11-10T20:36:04.480Z,21.13
2023-11-10T20:38:31.883Z,21.35
2023-11-10T20:40:59.982Z,18.30
2023-11-10T20:43:27.972Z,18.15
2023-11-10T20:45:55.322Z,19.83
2023-11-10T20:48:22.942Z,21.80
2023-11-10T20:50:50.543Z,19.50
2023-11-10T20:53:18.707Z,20.05
2023-11-10T20:55:47.747Z,18.75
2023-11-10T20:58:15.300Z,18.98
2023-11-10T21:00:42.790Z,18.85
2023-11-10T21:03:12.434Z,18.48
2023-11-10T21:05:45.673Z,15.90
2023-11-10T21:08:14.365Z,17.77
2023-11-10T21:10:42.233Z,18.05
2023-11-10T21:13:09.998Z,19.20
2023-11-10T21:15:38.711Z,17.70
2023-11-10T21:18:08.940Z,16.20
2023-11-10T21:20:37.160Z,17.48
2023-11-10T21:23:07.908Z,18.38
2023-11-10T21:25:35.486Z,20.48
2023-11-10T21:28:02.927Z,21.48
2023-11-10T21:30:30.340Z,19.52
2023-11-10T21:32:58.264Z,18.33
2023-11-10T21:35:28.350Z,17.33
2023-11-10T21:37:58.949Z,19.38
2023-11-10T21:40:26.305Z,19.25
2023-11-10T21:42:53.738Z,17.33
2023-11-10T21:45:21.244Z,17.80
2023-11-10T21:47:48.900Z,16.95
2023-11-10T21:50:16.648Z,16.85
2023-11-10T21:52:44.055Z,17.45
2023-11-10T21:55:14.685Z,17.83
2023-11-10T21:57:42.246Z,17.88
2023-11-10T22:00:11.075Z,17.13
2023-11-10T22:02:38.605Z,17.25
2023-11-10T22:05:06.324Z,17.00
2023-11-10T22:07:33.680Z,17.33
2023-11-10T22:10:01.850Z,17.90
2023-11-10T22:12:29.755Z,19.02
2023-11-10T22:14:57.188Z,18.38
2023-11-10T22:17:24.645Z,17.75
2023-11-10T22:19:53.137Z,17.90
2023-11-10T22:22:20.459Z,17.75
2023-11-10T22:24:48.079Z,19.05
2023-11-10T22:27:15.537Z,20.40
2023-11-10T22:29:43.499Z,17.27
2023-11-10T22:32:10.961Z,17.67
2023-11-10T22:34:38.265Z,19.88
2023-11-10T22:37:05.792Z,20.58
2023-11-10T22:39:33.456Z,21.27
2023-11-10T22:42:01.021Z,20.75
2023-11-10T22:44:28.643Z,19.92
2023-11-10T22:46:56.359Z,20.30
2023-11-10T22:49:23.945Z,20.38
2023-11-10T22:51:51.446Z,21.05
2023-11-10T22:54:19.181Z,18.48
2023-11-10T22:56:46.943Z,19.10
2023-11-10T22:59:14.577Z,18.75
2023-11-10T23:01:42.203Z,18.52
2023-11-10T23:04:12.055Z,18.00
2023-11-10T23:06:39.650Z,19.42
2023-11-10T23:09:07.179Z,20.50
2023-11-10T23:11:34.686Z,17.75
2023-11-10T23:14:02.217Z,19.15
2023-11-10T23:16:30.323Z,19.48
2023-11-10T23:18:59.742Z,18.17
2023-11-10T23:21:37.181Z,18.42
2023-11-10T23:24:05.597Z,20.52
2023-11-10T23:26:32.996Z,19.55
2023-11-10T23:29:00.396Z,20.23
2023-11-10T23:31:27.948Z,20.50
2023-11-10T23:33:55.381Z,19.67
2023-11-10T23:36:23.029Z,20.17
2023-11-10T23:38:50.501Z,19.25
2023-11-10T23:41:19.040Z,17.73
2023-11-10T23:43:46.512Z,18.60
2023-11-10T23:46:13.861Z,18.30
2023-11-10T23:48:41.379Z,18.23
2023-11-10T23:51:09.682Z,22.42
2023-11-10T23:53:37.187Z,20.08
2023-11-10T23:56:12.000Z,20.88
2023-11-10T23:58:44.912Z,20.60
